createdAt,value
2023-02-01T00:00:39.000Z,99.40
2023-02-01T00:03:06.139Z,99.40
2023-02-01T00:05:33.309Z,99.50
2023-02-01T00:08:00.702Z,99.40
2023-02-01T00:10:27.856Z,99.40
2023-02-01T00:12:55.050Z,99.60
2023-02-01T00:15:22.367Z,99.70
2023-02-01T00:17:53.889Z,99.60
2023-02-01T00:20:21.454Z,99.70
2023-02-01T00:22:48.778Z,99.80
2023-02-01T00:25:16.166Z,99.80
2023-02-01T00:27:43.390Z,99.80
2023-02-01T00:30:11.716Z,99.80
2023-02-01T00:32:38.904Z,99.90
2023-02-01T00:35:07.044Z,99.90
2023-02-01T00:37:34.330Z,99.90
2023-02-01T00:40:01.580Z,99.90
2023-02-01T00:42:28.748Z,99.90
2023-02-01T00:44:55.901Z,99.90
2023-02-01T00:47:23.216Z,99.90
2023-02-01T00:49:50.428Z,99.90
2023-02-01T00:52:17.797Z,99.90
2023-02-01T00:54:45.106Z,99.90
2023-02-01T00:57:12.528Z,99.90
2023-02-01T00:59:39.994Z,99.90
2023-02-01T01:02:07.411Z,99.90
2023-02-01T01:04:34.728Z,99.90
2023-02-01T01:07:01.942Z,99.90
2023-02-01T01:09:29.161Z,99.90
2023-02-01T01:11:56.566Z,99.90
2023-02-01T01:14:23.857Z,99.90
2023-02-01T01:16:51.017Z,99.90
2023-02-01T01:19:18.215Z,99.90
2023-02-01T01:21:45.376Z,99.90
2023-02-01T01:24:12.596Z,99.90
2023-02-01T01:26:40.106Z,99.90
2023-02-01T01:29:07.798Z,99.90
2023-02-01T01:31:35.100Z,99.90
2023-02-01T01:34:03.877Z,99.90
2023-02-01T01:36:31.251Z,99.90
2023-02-01T01:38:58.543Z,99.90
2023-02-01T01:41:32.032Z,99.90
2023-02-01T01:44:28.056Z,99.90
2023-02-01T01:46:55.360Z,99.90
2023-02-01T01:49:26.628Z,99.90
2023-02-01T01:52:01.470Z,99.90
2023-02-01T01:54:33.496Z,99.90
2023-02-01T01:57:09.617Z,99.90
2023-02-01T01:59:41.635Z,99.90
2023-02-01T02:02:09.479Z,99.90
2023-02-01T02:04:37.811Z,99.90
2023-02-01T02:07:23.412Z,99.90
2023-02-01T02:10:00.088Z,99.90
2023-02-01T02:12:28.132Z,99.90
2023-02-01T02:14:55.769Z,99.90
2023-02-01T02:17:54.363Z,99.90
2023-02-01T02:20:55.002Z,99.90
2023-02-01T02:23:40.399Z,99.90
2023-02-01T02:26:41.866Z,99.90
2023-02-01T02:29:43.629Z,99.90
2023-02-01T02:32:45.147Z,99.90
2023-02-01T02:35:30.992Z,99.90
2023-02-01T02:38:30.699Z,99.90
2023-02-01T02:41:34.621Z,99.90
2023-02-01T02:44:15.069Z,99.90
2023-02-01T02:46:51.920Z,99.90
2023-02-01T02:49:22.231Z,99.90
2023-02-01T02:51:57.827Z,99.90
2023-02-01T02:54:34.066Z,99.90
2023-02-01T02:57:06.285Z,99.90
2023-02-01T02:59:36.502Z,99.90
2023-02-01T03:02:04.125Z,99.90
2023-02-01T03:04:31.362Z,99.90
2023-02-01T03:06:58.719Z,99.90
2023-02-01T03:09:35.495Z,99.90
2023-02-01T03:12:12.838Z,99.90
2023-02-01T03:14:46.497Z,99.90
2023-02-01T03:17:20.261Z,99.90
2023-02-01T03:19:53.122Z,99.90
2023-02-01T03:22:28.099Z,99.90
2023-02-01T03:25:11.686Z,99.90
2023-02-01T03:27:50.798Z,99.90
2023-02-01T03:30:37.646Z,99.90
2023-02-01T03:33:12.674Z,99.90
2023-02-01T03:35:48.587Z,99.90
2023-02-01T03:38:28.541Z,99.90
2023-02-01T03:41:18.506Z,99.90
2023-02-01T03:44:07.673Z,99.90
2023-02-01T03:46:43.971Z,99.90
2023-02-01T03:49:21.641Z,99.90
2023-02-01T03:51:51.843Z,99.90
2023-02-01T03:54:24.869Z,99.90
2023-02-01T03:56:55.058Z,99.90
2023-02-01T03:59:22.376Z,99.90
2023-02-01T04:01:49.591Z,99.90
2023-02-01T04:04:17.407Z,99.90
2023-02-01T04:06:44.604Z,99.90
2023-02-01T04:09:11.834Z,99.90
2023-02-01T04:11:39.146Z,99.90
2023-02-01T04:14:09.794Z,99.90
2023-02-01T04:16:37.014Z,99.90
2023-02-01T04:19:04.505Z,99.90
2023-02-01T04:21:31.817Z,99.90
2023-02-01T04:23:59.382Z,99.90
2023-02-01T04:26:26.948Z,99.90
2023-02-01T04:28:54.252Z,99.90
2023-02-01T04:31:21.937Z,99.90
2023-02-01T04:33:49.162Z,99.90
2023-02-01T04:36:16.336Z,99.90
2023-02-01T04:38:43.493Z,99.90
2023-02-01T04:41:10.813Z,99.90
2023-02-01T04:43:38.077Z,99.90
2023-02-01T04:46:05.520Z,99.90
2023-02-01T04:48:32.952Z,99.90
2023-02-01T04:51:00.155Z,99.90
2023-02-01T04:53:27.300Z,99.90
2023-02-01T04:55:55.106Z,99.90
2023-02-01T04:58:22.739Z,99.90
2023-02-01T05:00:49.987Z,99.90
2023-02-01T05:03:17.563Z,99.90
2023-02-01T05:05:45.024Z,99.90
2023-02-01T05:08:12.230Z,99.90
2023-02-01T05:10:39.441Z,99.90
2023-02-01T05:13:06.616Z,99.90
2023-02-01T05:15:34.092Z,99.90
2023-02-01T05:18:01.349Z,99.90
2023-02-01T05:20:28.600Z,99.90
2023-02-01T05:22:55.763Z,99.90
2023-02-01T05:25:24.124Z,99.90
2023-02-01T05:27:51.331Z,99.90
2023-02-01T05:30:18.903Z,99.90
2023-02-01T05:32:46.273Z,99.90
2023-02-01T05:35:13.667Z,99.90
2023-02-01T05:37:40.865Z,99.90
2023-02-01T05:40:09.255Z,99.90
2023-02-01T05:42:36.467Z,99.90
2023-02-01T05:45:04.281Z,99.90
2023-02-01T05:47:31.809Z,99.90
2023-02-01T05:49:59.263Z,99.90
2023-02-01T05:52:26.524Z,99.90
2023-02-01T05:54:53.953Z,99.90
2023-02-01T05:57:23.955Z,99.90
2023-02-01T05:59:51.604Z,99.90
2023-02-01T06:02:18.803Z,99.90
2023-02-01T06:04:46.042Z,99.90
2023-02-01T06:07:13.287Z,99.90
2023-02-01T06:09:40.519Z,99.90
2023-02-01T06:12:08.223Z,99.90
2023-02-01T06:14:35.743Z,99.90
2023-02-01T06:17:03.024Z,99.90
2023-02-01T06:19:30.283Z,99.90
2023-02-01T06:21:57.538Z,99.90
2023-02-01T06:24:24.766Z,99.90
2023-02-01T06:26:52.120Z,99.90
2023-02-01T06:29:19.636Z,99.90
2023-02-01T06:31:46.856Z,99.90
2023-02-01T06:34:14.079Z,99.90
2023-02-01T06:36:41.427Z,99.90
2023-02-01T06:39:08.769Z,99.90
2023-02-01T06:41:36.063Z,99.90
2023-02-01T06:44:03.305Z,99.90
2023-02-01T06:46:30.591Z,99.90
2023-02-01T06:48:57.989Z,99.90
2023-02-01T06:51:28.719Z,99.90
2023-02-01T06:53:56.840Z,99.90
2023-02-01T06:56:24.595Z,99.90
2023-02-01T06:58:52.227Z,99.90
2023-02-01T07:01:19.896Z,99.90
2023-02-01T07:03:51.893Z,99.90
2023-02-01T07:06:20.616Z,99.90
2023-02-01T07:08:47.882Z,99.90
2023-02-01T07:11:17.473Z,99.90
2023-02-01T07:13:45.428Z,99.90
2023-02-01T07:16:21.956Z,99.90
2023-02-01T07:18:51.425Z,99.90
2023-02-01T07:21:19.623Z,99.90
2023-02-01T07:23:47.879Z,99.90
2023-02-01T07:26:15.830Z,99.90
2023-02-01T07:28:43.749Z,99.90
2023-02-01T07:31:18.673Z,99.90
2023-02-01T07:33:46.510Z,99.90
2023-02-01T07:36:17.517Z,99.90
2023-02-01T07:38:45.988Z,99.90
2023-02-01T07:41:13.572Z,99.90
2023-02-01T07:43:40.940Z,99.90
2023-02-01T07:46:08.816Z,99.90
2023-02-01T07:48:37.154Z,99.90
2023-02-01T07:51:14.405Z,99.90
2023-02-01T07:53:43.702Z,99.90
2023-02-01T07:56:18.643Z,99.90
2023-02-01T07:58:51.413Z,99.90
2023-02-01T08:01:26.263Z,99.90
2023-02-01T08:04:03.916Z,99.90
2023-02-01T08:06:34.609Z,99.90
2023-02-01T08:09:03.043Z,99.90
2023-02-01T08:11:31.033Z,99.90
2023-02-01T08:14:02.340Z,99.90
2023-02-01T08:16:30.159Z,99.90
2023-02-01T08:18:57.439Z,99.90
2023-02-01T08:21:28.745Z,99.90
2023-02-01T08:23:56.170Z,99.90
2023-02-01T08:26:26.802Z,99.90
2023-02-01T08:28:58.352Z,99.90
2023-02-01T08:31:29.285Z,99.90
2023-02-01T08:34:00.361Z,99.90
2023-02-01T08:36:31.012Z,99.90
2023-02-01T08:38:58.915Z,99.90
2023-02-01T08:41:30.060Z,99.90
2023-02-01T08:43:58.602Z,99.90
2023-02-01T08:46:26.046Z,99.90
2023-02-01T08:48:53.732Z,99.90
2023-02-01T08:51:23.926Z,99.90
2023-02-01T08:53:51.975Z,99.90
2023-02-01T08:56:22.070Z,99.90
2023-02-01T08:58:49.228Z,99.90
2023-02-01T09:01:18.486Z,99.90
2023-02-01T09:03:46.048Z,99.90
2023-02-01T09:06:15.959Z,99.90
2023-02-01T09:08:44.399Z,99.90
2023-02-01T09:11:18.398Z,99.90
2023-02-01T09:13:46.254Z,99.90
2023-02-01T09:16:14.243Z,99.90
2023-02-01T09:18:50.816Z,99.90
2023-02-01T09:21:30.052Z,99.90
2023-02-01T09:23:57.299Z,99.90
2023-02-01T09:26:31.466Z,99.90
2023-02-01T09:28:59.909Z,99.90
2023-02-01T09:31:27.437Z,99.90
2023-02-01T09:33:54.785Z,99.90
2023-02-01T09:36:22.369Z,99.90
2023-02-01T09:38:53.561Z,99.90
2023-02-01T09:41:42.551Z,99.90
2023-02-01T09:44:23.128Z,99.90
2023-02-01T09:46:58.115Z,99.90
2023-02-01T09:49:37.138Z,99.90
2023-02-01T09:52:09.493Z,99.90
2023-02-01T09:54:47.113Z,99.90
2023-02-01T09:57:40.372Z,99.50
2023-02-01T10:00:22.464Z,99.00
2023-02-01T10:02:51.032Z,99.10
2023-02-01T10:05:38.787Z,98.90
2023-02-01T10:08:25.827Z,98.00
2023-02-01T10:11:02.621Z,96.70
2023-02-01T10:14:04.309Z,95.00
2023-02-01T10:17:21.649Z,95.50
2023-02-01T10:20:00.625Z,94.00
2023-02-01T10:23:03.609Z,94.20
2023-02-01T10:26:02.764Z,94.40
2023-02-01T10:28:35.904Z,93.50
2023-02-01T10:31:04.273Z,93.60
2023-02-01T10:33:50.767Z,94.20
2023-02-01T10:37:19.492Z,92.80
2023-02-01T10:39:49.876Z,93.30
2023-02-01T10:42:22.908Z,93.00
2023-02-01T10:44:50.308Z,93.10
2023-02-01T10:47:17.710Z,92.90
2023-02-01T10:49:58.314Z,91.60
2023-02-01T10:52:42.672Z,91.10
2023-02-01T10:55:53.164Z,90.00
2023-02-01T10:58:22.520Z,85.90
2023-02-01T11:00:55.387Z,89.40
2023-02-01T11:03:43.711Z,88.40
2023-02-01T11:06:37.532Z,85.50
2023-02-01T11:09:16.400Z,84.70
2023-02-01T11:11:49.574Z,82.00
2023-02-01T11:14:25.653Z,83.40
2023-02-01T11:17:17.258Z,83.10
2023-02-01T11:20:01.013Z,82.00
2023-02-01T11:22:29.354Z,82.90
2023-02-01T11:24:57.751Z,79.30
2023-02-01T11:27:28.052Z,79.40
2023-02-01T11:30:02.449Z,80.70
2023-02-01T11:32:31.633Z,80.20
2023-02-01T11:35:07.185Z,79.80
2023-02-01T11:37:42.364Z,75.70
2023-02-01T11:40:18.787Z,78.70
2023-02-01T11:42:55.152Z,80.30
2023-02-01T11:45:28.707Z,79.70
2023-02-01T11:47:59.240Z,80.30
2023-02-01T11:51:24.655Z,80.50
2023-02-01T11:54:09.767Z,79.90
2023-02-01T11:57:10.939Z,78.20
2023-02-01T12:00:08.388Z,81.30
2023-02-01T12:02:56.579Z,78.00
2023-02-01T12:05:38.511Z,78.60
2023-02-01T12:08:23.430Z,79.80
2023-02-01T12:11:22.053Z,78.20
2023-02-01T12:17:03.780Z,74.00
2023-02-01T12:20:01.705Z,73.00
2023-02-01T12:22:53.591Z,72.20
2023-02-01T12:25:54.510Z,70.40
2023-02-01T12:29:05.402Z,69.30
2023-02-01T12:31:53.976Z,69.40
2023-02-01T12:34:44.613Z,70.20
2023-02-01T12:37:26.730Z,70.40
2023-02-01T12:40:22.045Z,68.40
2023-02-01T12:43:16.354Z,68.50
2023-02-01T12:46:15.054Z,69.20
2023-02-01T12:48:55.840Z,65.60
2023-02-01T12:51:37.237Z,69.00
2023-02-01T12:55:22.956Z,70.50
2023-02-01T12:58:14.955Z,71.00
2023-02-01T13:00:50.316Z,67.90
2023-02-01T13:03:42.439Z,66.10
2023-02-01T13:06:14.451Z,66.70
2023-02-01T13:09:23.396Z,63.60
2023-02-01T13:11:54.909Z,66.20
2023-02-01T13:14:34.009Z,65.90
2023-02-01T13:17:10.954Z,66.20
2023-02-01T13:19:52.089Z,64.50
2023-02-01T13:22:34.099Z,66.10
2023-02-01T13:25:13.987Z,68.20
2023-02-01T13:27:41.752Z,64.70
2023-02-01T13:31:06.091Z,63.60
2023-02-01T13:34:24.217Z,63.80
2023-02-01T13:37:16.357Z,63.90
2023-02-01T13:40:09.174Z,65.80
2023-02-01T13:42:54.334Z,63.90
2023-02-01T13:45:31.847Z,69.40
2023-02-01T13:48:04.478Z,63.60
2023-02-01T13:50:42.177Z,65.10
2023-02-01T13:53:12.450Z,66.20
2023-02-01T13:55:48.365Z,66.90
2023-02-01T13:58:41.268Z,66.90
2023-02-01T14:01:23.937Z,65.40
2023-02-01T14:03:58.133Z,64.90
2023-02-01T14:06:28.625Z,65.10
2023-02-01T14:09:19.695Z,65.20
2023-02-01T14:11:56.983Z,65.50
2023-02-01T14:14:25.195Z,65.20
2023-02-01T14:16:55.559Z,64.90
2023-02-01T14:19:28.910Z,63.70
2023-02-01T14:22:18.717Z,64.00
2023-02-01T14:24:53.479Z,65.20
2023-02-01T14:27:27.360Z,65.10
2023-02-01T14:30:02.341Z,63.90
2023-02-01T14:32:40.306Z,64.50
2023-02-01T14:35:22.483Z,64.60
2023-02-01T14:37:59.653Z,66.20
2023-02-01T14:40:29.768Z,65.10
2023-02-01T14:42:57.252Z,64.10
2023-02-01T14:45:25.139Z,66.10
2023-02-01T14:47:54.169Z,64.90
2023-02-01T14:50:33.573Z,65.70
2023-02-01T14:53:12.362Z,66.10
2023-02-01T14:55:47.423Z,67.20
2023-02-01T14:58:30.285Z,66.50
2023-02-01T15:01:17.640Z,66.00
2023-02-01T15:04:16.048Z,65.80
2023-02-01T15:07:11.375Z,68.10
2023-02-01T15:09:46.273Z,64.00
2023-02-01T15:12:17.175Z,61.70
2023-02-01T15:14:47.298Z,61.30
2023-02-01T15:17:31.325Z,61.80
2023-02-01T15:20:25.306Z,61.50
2023-02-01T15:23:02.763Z,63.50
2023-02-01T15:25:41.560Z,62.10
2023-02-01T15:28:16.343Z,64.20
2023-02-01T15:31:06.635Z,63.70
2023-02-01T15:33:34.683Z,63.50
2023-02-01T15:36:08.011Z,63.40
2023-02-01T15:38:40.238Z,62.60
2023-02-01T15:41:12.471Z,62.70
2023-02-01T15:43:56.573Z,65.60
2023-02-01T15:46:48.173Z,65.10
2023-02-01T15:49:40.859Z,65.00
2023-02-01T15:52:27.253Z,65.60
2023-02-01T15:54:59.737Z,65.60
2023-02-01T15:57:39.422Z,71.30
2023-02-01T16:00:30.416Z,66.20
2023-02-01T16:03:00.931Z,70.40
2023-02-01T16:05:44.356Z,70.30
2023-02-01T16:08:16.451Z,67.20
2023-02-01T16:10:49.141Z,68.30
2023-02-01T16:13:19.674Z,70.10
2023-02-01T16:15:47.327Z,68.20
2023-02-01T16:18:18.463Z,70.30
2023-02-01T16:20:48.367Z,72.10
2023-02-01T16:23:15.706Z,72.70
2023-02-01T16:25:43.686Z,76.80
2023-02-01T16:28:11.149Z,75.20
2023-02-01T16:30:38.691Z,73.50
2023-02-01T16:33:12.865Z,69.50
2023-02-01T16:35:40.269Z,68.70
2023-02-01T16:38:16.751Z,68.70
2023-02-01T16:40:45.310Z,67.70
2023-02-01T16:43:26.569Z,69.50
2023-02-01T16:45:59.962Z,69.90
2023-02-01T16:48:32.034Z,69.70
2023-02-01T16:51:14.691Z,69.00
2023-02-01T16:53:53.836Z,68.50
2023-02-01T16:56:31.676Z,68.10
2023-02-01T16:58:59.257Z,69.90
2023-02-01T17:01:27.353Z,68.40
2023-02-01T17:03:55.361Z,68.10
2023-02-01T17:06:26.603Z,67.60
2023-02-01T17:09:00.104Z,69.00
2023-02-01T17:11:28.611Z,68.30
2023-02-01T17:13:58.023Z,69.10
2023-02-01T17:16:32.473Z,68.20
2023-02-01T17:19:09.856Z,66.80
2023-02-01T17:21:47.755Z,66.80
2023-02-01T17:24:17.071Z,67.80
2023-02-01T17:26:46.281Z,67.90
2023-02-01T17:29:14.314Z,68.80
2023-02-01T17:31:46.722Z,69.10
2023-02-01T17:34:19.185Z,69.60
2023-02-01T17:36:48.106Z,69.00
2023-02-01T17:39:18.759Z,67.90
2023-02-01T17:41:45.997Z,67.90
2023-02-01T17:44:13.249Z,68.40
2023-02-01T17:46:40.625Z,68.40
2023-02-01T17:49:07.920Z,69.90
2023-02-01T17:51:35.751Z,70.30
2023-02-01T17:54:03.015Z,70.50
2023-02-01T17:56:32.751Z,70.40
2023-02-01T17:59:00.058Z,69.60
2023-02-01T18:01:27.401Z,69.50
2023-02-01T18:03:54.875Z,70.30
2023-02-01T18:06:27.668Z,69.70
2023-02-01T18:08:55.176Z,70.40
2023-02-01T18:11:25.098Z,70.70
2023-02-01T18:13:53.923Z,70.60
2023-02-01T18:16:25.162Z,70.70
2023-02-01T18:18:53.368Z,70.50
2023-02-01T18:21:23.651Z,71.00
2023-02-01T18:23:50.856Z,70.70
2023-02-01T18:26:19.445Z,71.60
2023-02-01T18:28:46.693Z,72.40
2023-02-01T18:31:31.045Z,71.00
2023-02-01T18:34:00.741Z,72.30
2023-02-01T18:36:28.937Z,72.90
2023-02-01T18:38:56.305Z,73.00
2023-02-01T18:41:26.261Z,73.50
2023-02-01T18:43:54.095Z,74.60
2023-02-01T18:46:21.490Z,74.40
2023-02-01T18:48:49.298Z,76.20
2023-02-01T18:51:20.931Z,75.80
2023-02-01T18:53:49.500Z,75.10
2023-02-01T18:56:18.132Z,75.40
2023-02-01T18:58:46.147Z,76.00
2023-02-01T19:01:20.283Z,77.20
2023-02-01T19:03:54.306Z,77.20
2023-02-01T19:06:35.147Z,77.50
2023-02-01T19:09:02.346Z,77.30
2023-02-01T19:11:29.876Z,78.20
2023-02-01T19:13:57.267Z,79.20
2023-02-01T19:16:24.499Z,80.90
2023-02-01T19:18:53.683Z,81.00
2023-02-01T19:21:21.144Z,81.10
2023-02-01T19:23:48.684Z,81.90
2023-02-01T19:26:18.213Z,82.50
2023-02-01T19:28:45.876Z,84.20
2023-02-01T19:31:13.692Z,87.70
2023-02-01T19:33:41.157Z,91.60
2023-02-01T19:36:08.877Z,91.50
2023-02-01T19:38:38.761Z,91.90
2023-02-01T19:41:07.594Z,93.80
2023-02-01T19:43:35.102Z,89.40
2023-02-01T19:46:02.453Z,90.40
2023-02-01T19:48:31.395Z,91.60
2023-02-01T19:50:59.645Z,92.40
2023-02-01T19:53:28.937Z,93.40
2023-02-01T19:55:58.501Z,94.00
2023-02-01T19:58:27.444Z,95.20
2023-02-01T20:00:57.797Z,92.50
2023-02-01T20:03:25.625Z,93.10
2023-02-01T20:05:55.377Z,92.80
2023-02-01T20:08:22.950Z,92.90
2023-02-01T20:10:51.695Z,93.40
2023-02-01T20:13:19.149Z,93.60
2023-02-01T20:15:46.569Z,93.80
2023-02-01T20:18:13.861Z,94.30
2023-02-01T20:20:41.858Z,94.60
2023-02-01T20:23:09.277Z,94.60
2023-02-01T20:25:38.633Z,95.20
2023-02-01T20:28:05.994Z,95.40
2023-02-01T20:30:33.322Z,95.40
2023-02-01T20:33:00.690Z,96.40
2023-02-01T20:35:28.163Z,96.70
2023-02-01T20:37:55.807Z,96.70
2023-02-01T20:40:23.041Z,97.50
2023-02-01T20:42:53.004Z,98.30
2023-02-01T20:45:20.871Z,99.00
2023-02-01T20:47:51.577Z,99.60
2023-02-01T20:50:19.770Z,99.90
2023-02-01T20:52:47.062Z,98.80
2023-02-01T20:55:14.348Z,97.50
2023-02-01T20:57:42.169Z,97.40
2023-02-01T21:00:10.487Z,96.70
2023-02-01T21:02:39.949Z,96.50
2023-02-01T21:05:08.049Z,96.70
2023-02-01T21:07:37.380Z,96.00
2023-02-01T21:10:05.997Z,96.10
2023-02-01T21:12:33.876Z,95.80
2023-02-01T21:15:01.507Z,96.00
2023-02-01T21:17:31.679Z,95.80
2023-02-01T21:19:59.872Z,95.50
2023-02-01T21:22:27.111Z,95.90
2023-02-01T21:24:54.304Z,95.80
2023-02-01T21:27:21.622Z,95.10
2023-02-01T21:29:48.743Z,94.70
2023-02-01T21:32:15.913Z,94.60
2023-02-01T21:34:43.006Z,95.30
2023-02-01T21:37:10.341Z,95.00
2023-02-01T21:39:37.510Z,94.60
2023-02-01T21:42:04.905Z,94.70
2023-02-01T21:44:32.186Z,94.70
2023-02-01T21:46:59.344Z,95.00
2023-02-01T21:49:28.047Z,94.50
2023-02-01T21:51:56.157Z,94.50
2023-02-01T21:54:23.394Z,94.70
2023-02-01T21:56:50.758Z,94.10
2023-02-01T21:59:18.205Z,94.30
2023-02-01T22:01:46.126Z,93.80
2023-02-01T22:04:13.485Z,94.10
2023-02-01T22:06:44.189Z,94.30
2023-02-01T22:09:20.108Z,93.80
2023-02-01T22:11:48.831Z,94.20
2023-02-01T22:14:17.002Z,94.30
2023-02-01T22:16:45.073Z,94.30
2023-02-01T22:19:13.877Z,94.30
2023-02-01T22:21:43.011Z,94.20
2023-02-01T22:24:13.781Z,93.20
2023-02-01T22:26:42.376Z,92.70
2023-02-01T22:29:10.955Z,92.90
2023-02-01T22:31:38.207Z,93.40
2023-02-01T22:34:06.141Z,93.70
2023-02-01T22:36:33.923Z,93.60
2023-02-01T22:39:01.028Z,94.00
2023-02-01T22:41:28.406Z,93.80
2023-02-01T22:43:55.805Z,94.20
2023-02-01T22:46:24.716Z,93.80
2023-02-01T22:48:52.543Z,93.90
2023-02-01T22:51:32.022Z,93.80
2023-02-01T22:54:00.292Z,93.80
2023-02-01T22:56:37.425Z,93.70
2023-02-01T22:59:09.312Z,93.80
2023-02-01T23:01:36.945Z,94.10
2023-02-01T23:04:07.730Z,94.40
2023-02-01T23:06:35.735Z,93.80
2023-02-01T23:09:08.707Z,93.90
2023-02-01T23:11:35.981Z,93.80
2023-02-01T23:14:03.283Z,93.60
2023-02-01T23:16:30.518Z,93.70
2023-02-01T23:18:57.798Z,93.70
2023-02-01T23:21:25.525Z,94.00
2023-02-01T23:23:58.004Z,93.90
2023-02-01T23:26:29.755Z,93.80
2023-02-01T23:28:59.264Z,93.80
2023-02-01T23:31:29.847Z,94.40
2023-02-01T23:34:02.224Z,93.80
2023-02-01T23:36:31.962Z,93.90
2023-02-01T23:39:00.103Z,94.00
2023-02-01T23:41:27.634Z,94.30
2023-02-01T23:43:54.815Z,94.00
2023-02-01T23:46:22.377Z,94.30
2023-02-01T23:48:50.700Z,94.40
2023-02-01T23:51:18.974Z,94.30
2023-02-01T23:53:46.440Z,94.50
2023-02-01T23:56:25.537Z,94.60
2023-02-01T23:58:55.678Z,94.30
